Time;durP1;ratioP1;P1;durP2;ratioP2;P2;SDS_P1;SDS_P2;PMS_P1;PMS_P2;Temp;Humidity;BMP_temperature;BMP_pressure;BME280_temperature;BME280_humidity;BME280_pressure;Samples;Min_cycle;Max_cycle;Signal;HPM_P1;HPM_P2
2024/01/19 00:00:57;;;;;;;4.70;3.38;;;;;;;0.38;100.00;101060.13;5059219;28;20028;-77
2024/01/19 00:03:22;;;;;;;5.30;2.70;;;;;;;0.46;100.00;101084.19;5057965;28;20284;-76
2024/01/19 00:05:47;;;;;;;6.38;3.10;;;;;;;0.50;100.00;101099.00;5062029;28;20103;-77
2024/01/19 00:08:13;;;;;;;5.22;4.00;;;;;;;0.48;100.00;101116.94;5058642;28;20103;-77
2024/01/19 00:10:38;;;;;;;3.95;3.03;;;;;;;0.51;100.00;101121.88;5060794;28;20067;-77
2024/01/19 00:13:03;;;;;;;5.35;3.38;;;;;;;0.33;100.00;101107.84;5058421;28;20066;-76
2024/01/19 00:15:29;;;;;;;8.65;3.33;;;;;;;0.26;100.00;101073.59;5060316;28;20108;-76
2024/01/19 00:17:54;;;;;;;6.95;2.92;;;;;;;0.36;100.00;101087.16;5050738;28;20040;-76
2024/01/19 00:20:19;;;;;;;7.65;3.35;;;;;;;0.17;100.00;101079.78;5065104;28;20036;-77
2024/01/19 00:22:45;;;;;;;5.60;2.85;;;;;;;0.08;100.00;101073.31;5065523;28;20114;-77
2024/01/19 00:25:10;;;;;;;7.57;3.75;;;;;;;0.22;100.00;101075.31;5070815;28;20058;-76
2024/01/19 00:27:35;;;;;;;3.67;2.60;;;;;;;0.20;100.00;101075.59;5062540;28;20037;-76
2024/01/19 00:30:01;;;;;;;5.75;2.25;;;;;;;0.12;100.00;101071.59;5066561;28;20025;-75
2024/01/19 00:32:26;;;;;;;3.72;2.97;;;;;;;0.25;100.00;101066.44;5067102;28;20521;-76
2024/01/19 00:34:52;;;;;;;8.05;3.47;;;;;;;0.27;100.00;101067.75;5066664;28;20036;-76
2024/01/19 00:37:17;;;;;;;6.72;3.17;;;;;;;0.23;100.00;101076.94;5060035;28;20041;-76
2024/01/19 00:39:43;;;;;;;5.90;3.70;;;;;;;0.07;100.00;101071.72;5059748;28;20024;-76
2024/01/19 00:42:08;;;;;;;4.55;3.13;;;;;;;0.22;100.00;101080.81;5058225;28;20055;-76
2024/01/19 00:44:33;;;;;;;8.35;3.35;;;;;;;0.24;100.00;101075.81;5066939;28;20495;-76
2024/01/19 00:46:59;;;;;;;6.13;3.30;;;;;;;0.13;100.00;101078.75;5064036;28;20020;-76
2024/01/19 00:49:24;;;;;;;7.30;2.88;;;;;;;0.16;100.00;101072.63;5065456;28;20135;-76
2024/01/19 00:51:50;;;;;;;4.45;2.95;;;;;;;0.22;100.00;101081.63;5062841;28;20480;-77
2024/01/19 00:54:16;;;;;;;5.85;2.95;;;;;;;0.18;100.00;101081.41;5066537;28;20041;-76
2024/01/19 00:56:41;;;;;;;4.80;2.38;;;;;;;0.31;100.00;101079.00;5063816;28;20040;-76
2024/01/19 00:59:06;;;;;;;4.97;2.50;;;;;;;0.33;100.00;101085.00;5067481;28;20027;-76
2024/01/19 01:01:32;;;;;;;8.60;3.35;;;;;;;0.40;100.00;101088.16;5065142;28;20051;-76
2024/01/19 01:03:58;;;;;;;7.65;3.22;;;;;;;0.37;100.00;101099.81;5057666;28;20384;-75
2024/01/19 01:06:24;;;;;;;7.45;3.15;;;;;;;0.35;100.00;101110.31;5065167;28;20028;-76
2024/01/19 01:08:50;;;;;;;7.40;3.47;;;;;;;0.36;100.00;101100.94;5064815;28;20035;-76
2024/01/19 01:11:15;;;;;;;6.75;3.58;;;;;;;0.29;100.00;101103.25;5057289;28;20083;-76
2024/01/19 01:13:40;;;;;;;7.78;3.33;;;;;;;0.25;100.00;101108.53;5067953;28;20066;-76
2024/01/19 01:16:06;;;;;;;7.72;3.35;;;;;;;0.31;100.00;101106.53;5066640;28;20123;-76
2024/01/19 01:18:31;;;;;;;6.25;3.63;;;;;;;0.24;100.00;101108.88;5061925;28;20054;-75
2024/01/19 01:20:57;;;;;;;5.13;2.55;;;;;;;0.23;100.00;101105.28;5062127;28;21008;-76
2024/01/19 01:23:23;;;;;;;3.15;2.08;;;;;;;0.20;100.00;101101.19;5066870;28;20035;-77
2024/01/19 01:25:48;;;;;;;2.58;2.35;;;;;;;0.26;100.00;101107.44;5066171;28;20119;-76
2024/01/19 01:28:17;;;;;;;6.18;3.47;;;;;;;0.13;100.00;101109.03;5061292;28;20021;-76
2024/01/19 01:30:42;;;;;;;4.10;3.05;;;;;;;0.09;100.00;101102.50;5061441;28;20024;-76
2024/01/19 01:33:08;;;;;;;3.50;2.20;;;;;;;0.20;100.00;101105.88;5065895;28;20039;-75
2024/01/19 01:35:33;;;;;;;13.45;4.10;;;;;;;0.17;100.00;101106.50;5069487;28;20693;-75
2024/01/19 01:37:59;;;;;;;3.65;2.53;;;;;;;0.14;100.00;101107.91;5068616;28;20331;-77
2024/01/19 01:40:24;;;;;;;4.50;2.92;;;;;;;0.08;100.00;101113.81;5063697;28;20498;-76
2024/01/19 01:42:50;;;;;;;5.97;2.70;;;;;;;0.16;100.00;101113.94;5062534;28;20032;-77
2024/01/19 01:45:15;;;;;;;4.35;2.35;;;;;;;0.21;100.00;101104.75;5061886;28;20455;-77
2024/01/19 01:47:40;;;;;;;7.18;3.33;;;;;;;0.26;100.00;101114.88;5066080;28;20032;-77
2024/01/19 01:50:06;;;;;;;7.70;3.13;;;;;;;0.14;100.00;101116.16;5064801;28;20028;-77
2024/01/19 01:52:32;;;;;;;7.88;2.38;;;;;;;0.05;100.00;101120.72;5064484;28;20056;-77
2024/01/19 01:54:57;;;;;;;3.90;2.78;;;;;;;0.19;100.00;101132.59;5065818;28;20071;-77
2024/01/19 01:57:24;;;;;;;6.70;3.75;;;;;;;0.13;100.00;101128.31;5064870;28;20040;-76
2024/01/19 01:59:50;;;;;;;3.35;2.72;;;;;;;0.26;100.00;101129.47;5057628;28;20082;-76
2024/01/19 02:02:16;;;;;;;7.32;2.83;;;;;;;0.33;100.00;101131.81;5068535;28;20495;-77
2024/01/19 02:04:41;;;;;;;3.85;2.28;;;;;;;0.13;100.00;101133.81;5056105;28;20064;-77
2024/01/19 02:07:08;;;;;;;10.30;2.92;;;;;;;0.25;100.00;101132.50;5064503;28;20107;-76
2024/01/19 02:09:33;;;;;;;5.25;3.63;;;;;;;0.09;100.00;101132.78;5062446;28;20102;-77
2024/01/19 02:11:58;;;;;;;6.30;3.08;;;;;;;0.15;100.00;101141.78;5061706;28;20500;-76
2024/01/19 02:14:24;;;;;;;4.93;2.28;;;;;;;0.09;100.00;101146.53;5059721;28;20033;-77
2024/01/19 02:16:49;;;;;;;6.20;2.38;;;;;;;0.18;100.00;101138.41;5060756;28;20041;-77
2024/01/19 02:19:15;;;;;;;5.55;2.22;;;;;;;0.16;100.00;101155.22;5060897;28;20028;-77
2024/01/19 02:21:40;;;;;;;3.13;2.03;;;;;;;0.09;100.00;101152.03;5061149;28;20032;-77
2024/01/19 02:24:12;;;;;;;2.65;1.95;;;;;;;0.02;100.00;101154.34;5064060;28;20081;-77
2024/01/19 02:26:38;;;;;;;4.45;2.60;;;;;;;0.11;100.00;101162.75;5062849;28;20036;-77
2024/01/19 02:29:04;;;;;;;5.50;2.13;;;;;;;0.13;100.00;101155.03;5055443;28;20039;-76
2024/01/19 02:31:30;;;;;;;3.05;2.05;;;;;;;0.12;100.00;101172.63;5059210;28;20028;-76
2024/01/19 02:33:55;;;;;;;8.75;2.60;;;;;;;0.11;100.00;101176.53;5059314;28;20032;-76
2024/01/19 02:36:21;;;;;;;7.78;2.72;;;;;;;0.09;100.00;101168.56;5055899;28;20062;-77
2024/01/19 02:38:46;;;;;;;4.72;2.35;;;;;;;0.21;100.00;101162.56;5066254;28;20024;-76
2024/01/19 02:41:11;;;;;;;3.90;2.15;;;;;;;0.10;100.00;101150.91;5064451;28;20033;-76
2024/01/19 02:43:37;;;;;;;4.25;2.20;;;;;;;0.09;100.00;101154.78;5066991;28;20422;-76
2024/01/19 02:46:02;;;;;;;2.97;1.88;;;;;;;0.18;100.00;101163.19;5059286;28;20480;-77
2024/01/19 02:48:27;;;;;;;7.40;2.08;;;;;;;0.08;100.00;101166.91;5064116;28;20028;-77
2024/01/19 02:50:53;;;;;;;4.90;2.35;;;;;;;0.14;100.00;101167.66;5065482;28;20052;-77
2024/01/19 02:53:18;;;;;;;3.28;1.95;;;;;;;0.10;100.00;101169.38;5057640;28;20458;-77
2024/01/19 02:55:43;;;;;;;3.83;1.90;;;;;;;-0.02;100.00;101176.16;5062557;28;20488;-77
2024/01/19 02:58:09;;;;;;;4.70;1.92;;;;;;;-0.09;100.00;101174.91;5065979;28;20136;-77
2024/01/19 03:00:34;;;;;;;5.13;2.55;;;;;;;0.06;100.00;101171.91;5059916;28;20036;-76
2024/01/19 03:02:59;;;;;;;3.60;2.00;;;;;;;0.05;100.00;101181.28;5064447;28;20034;-76
2024/01/19 03:05:25;;;;;;;6.70;2.38;;;;;;;0.22;100.00;101179.94;5064497;28;20020;-76
2024/01/19 03:07:50;;;;;;;4.63;2.05;;;;;;;0.17;100.00;101189.91;5062888;28;20051;-76
2024/01/19 03:10:15;;;;;;;2.42;1.83;;;;;;;0.22;100.00;101190.94;5065135;28;20440;-76
2024/01/19 03:12:41;;;;;;;5.22;1.85;;;;;;;0.19;100.00;101193.19;5061977;28;20044;-77
2024/01/19 03:15:06;;;;;;;4.07;2.63;;;;;;;0.23;100.00;101189.81;5061163;28;20040;-77
2024/01/19 03:17:33;;;;;;;2.97;1.98;;;;;;;0.30;100.00;101232.38;5058397;28;20047;-77
2024/01/19 03:19:59;;;;;;;6.50;2.65;;;;;;;0.29;100.00;101252.75;5063625;28;20033;-77
2024/01/19 03:22:24;;;;;;;3.25;2.95;;;;;;;0.33;100.00;101247.47;5065355;28;20075;-77
2024/01/19 03:24:49;;;;;;;9.30;3.28;;;;;;;0.19;100.00;101241.88;5064276;28;20060;-77
2024/01/19 03:27:17;;;;;;;3.65;3.33;;;;;;;0.32;100.00;101267.88;5062287;28;20036;-76
2024/01/19 03:29:44;;;;;;;6.30;3.97;;;;;;;0.41;100.00;101241.28;5059119;28;20033;-77
2024/01/19 03:32:09;;;;;;;6.75;3.22;;;;;;;0.33;100.00;101230.94;5062048;28;20024;-76
2024/01/19 03:34:34;;;;;;;4.72;3.22;;;;;;;0.23;100.00;101225.59;5065213;28;20086;-76
2024/01/19 03:37:03;;;;;;;5.00;2.88;;;;;;;0.29;100.00;101227.16;5064683;28;20123;-76
2024/01/19 03:39:30;;;;;;;5.68;4.40;;;;;;;0.40;100.00;101234.13;5064708;28;20594;-76
2024/01/19 03:41:56;;;;;;;3.97;3.45;;;;;;;0.44;100.00;101248.13;5063172;28;20028;-76
2024/01/19 03:44:23;;;;;;;4.60;3.47;;;;;;;0.47;100.00;101258.56;5067029;28;20055;-77
2024/01/19 03:46:49;;;;;;;5.53;3.70;;;;;;;0.49;100.00;101254.38;5063452;28;20103;-77
2024/01/19 03:49:14;;;;;;;7.68;4.75;;;;;;;0.46;100.00;101246.69;5060951;28;20120;-76
2024/01/19 03:52:02;;;;;;;6.00;3.63;;;;;;;0.46;100.00;101235.69;5057777;28;20056;-76
2024/01/19 03:54:27;;;;;;;11.82;3.80;;;;;;;0.44;100.00;101248.94;5061058;28;20427;-76
2024/01/19 03:56:54;;;;;;;3.58;3.25;;;;;;;0.44;100.00;101254.44;5065496;28;20032;-74
2024/01/19 03:59:19;;;;;;;7.75;3.95;;;;;;;0.29;100.00;101258.25;5059861;28;20082;-74
2024/01/19 04:01:45;;;;;;;5.50;4.25;;;;;;;0.38;100.00;101266.66;5055461;28;20118;-74
2024/01/19 04:04:10;;;;;;;3.72;2.97;;;;;;;0.45;100.00;101261.59;5064801;28;20032;-73
2024/01/19 04:06:35;;;;;;;9.40;3.50;;;;;;;0.38;100.00;101270.25;5063038;28;20025;-77
2024/01/19 04:09:01;;;;;;;4.85;3.03;;;;;;;0.38;100.00;101294.19;5070794;28;20102;-76
2024/01/19 04:11:26;;;;;;;7.20;3.75;;;;;;;0.49;100.00;101311.41;5059097;28;20028;-76
2024/01/19 04:13:52;;;;;;;5.78;3.38;;;;;;;0.48;100.00;101316.06;5062136;28;20029;-76
2024/01/19 04:16:18;;;;;;;4.40;3.33;;;;;;;0.56;100.00;101331.91;5062259;28;20456;-76
2024/01/19 04:18:43;;;;;;;3.95;1.50;;;;;;;0.59;100.00;101319.47;5065890;28;20085;-76
2024/01/19 04:21:09;;;;;;;2.35;1.10;;;;;;;0.49;100.00;101317.72;5065903;28;20388;-76
2024/01/19 04:23:34;;;;;;;2.13;0.85;;;;;;;0.52;100.00;101321.81;5066719;28;20515;-77
2024/01/19 04:25:59;;;;;;;4.28;0.80;;;;;;;0.56;100.00;101311.81;5069919;28;20114;-77
2024/01/19 04:28:25;;;;;;;2.25;0.60;;;;;;;0.56;100.00;101309.88;5068043;28;20051;-76
2024/01/19 04:30:50;;;;;;;0.50;0.40;;;;;;;0.50;100.00;101308.31;5069938;28;20039;-77
2024/01/19 04:33:15;;;;;;;0.98;0.50;;;;;;;0.58;100.00;101310.41;5063370;28;20478;-77
2024/01/19 04:35:41;;;;;;;0.65;0.63;;;;;;;0.60;100.00;101299.09;5064914;28;20028;-77
2024/01/19 04:38:06;;;;;;;3.50;1.00;;;;;;;0.58;100.00;101299.38;5065890;28;20055;-77
2024/01/19 04:40:31;;;;;;;3.85;0.60;;;;;;;0.62;100.00;101301.56;5067985;28;20074;-76
2024/01/19 04:42:57;;;;;;;1.17;0.47;;;;;;;0.62;100.00;101304.31;5062830;28;20085;-76
2024/01/19 04:45:22;;;;;;;2.38;0.77;;;;;;;0.54;100.00;101306.59;5067102;28;20040;-76
2024/01/19 04:47:48;;;;;;;2.58;0.70;;;;;;;0.56;100.00;101307.13;5063621;28;20039;-76
2024/01/19 04:50:13;;;;;;;1.65;0.50;;;;;;;0.45;100.00;101316.69;5067956;28;20035;-77
2024/01/19 04:52:38;;;;;;;1.15;0.68;;;;;;;0.51;100.00;101321.00;5069280;28;20035;-77
2024/01/19 04:55:04;;;;;;;0.68;0.50;;;;;;;0.45;100.00;101321.38;5064344;28;20041;-77
2024/01/19 04:57:32;;;;;;;1.00;0.60;;;;;;;0.32;100.00;101323.75;5066332;28;20399;-76
2024/01/19 04:59:57;;;;;;;0.90;0.82;;;;;;;0.26;100.00;101324.13;5068272;28;20024;-77
2024/01/19 05:02:23;;;;;;;0.95;0.47;;;;;;;0.30;100.00;101325.19;5068810;28;20063;-77
2024/01/19 05:04:48;;;;;;;1.80;0.63;;;;;;;0.35;100.00;101330.59;5064396;28;20720;-77
2024/01/19 05:07:13;;;;;;;1.35;0.60;;;;;;;0.19;100.00;101322.56;5056774;28;20081;-74
2024/01/19 05:09:39;;;;;;;1.17;0.60;;;;;;;0.18;100.00;101334.69;5063229;28;20385;-74
2024/01/19 05:12:04;;;;;;;1.20;0.43;;;;;;;0.25;100.00;101333.50;5058852;28;20484;-75
2024/01/19 05:14:30;;;;;;;1.15;0.70;;;;;;;0.23;100.00;101341.22;5070912;28;20095;-72
2024/01/19 05:16:55;;;;;;;1.05;0.60;;;;;;;0.32;100.00;101347.72;5068399;28;20058;-76
2024/01/19 05:19:21;;;;;;;3.80;0.77;;;;;;;0.19;100.00;101349.25;5069013;28;20078;-76
2024/01/19 05:21:47;;;;;;;1.42;0.55;;;;;;;0.15;100.00;101349.06;5058446;28;20036;-76
2024/01/19 05:24:12;;;;;;;1.27;0.60;;;;;;;0.17;100.00;101354.25;5059392;28;20381;-76
2024/01/19 05:26:37;;;;;;;2.03;0.95;;;;;;;0.25;100.00;101358.28;5065580;28;20077;-76
2024/01/19 05:29:03;;;;;;;1.38;0.50;;;;;;;0.07;100.00;101360.72;5062605;28;20047;-77
2024/01/19 05:31:28;;;;;;;4.45;0.93;;;;;;;0.19;100.00;101361.09;5067446;28;20388;-76
2024/01/19 05:33:53;;;;;;;1.75;0.70;;;;;;;0.19;100.00;101363.88;5065997;28;21043;-77
2024/01/19 05:36:20;;;;;;;4.15;0.70;;;;;;;0.25;100.00;101372.84;5066698;28;20080;-76
2024/01/19 05:38:45;;;;;;;3.63;0.90;;;;;;;0.18;100.00;101369.66;5063174;28;20553;-76
2024/01/19 05:41:10;;;;;;;1.02;0.80;;;;;;;0.30;100.00;101374.75;5064067;28;20028;-76
2024/01/19 05:43:36;;;;;;;1.65;0.80;;;;;;;0.24;100.00;101378.69;5064435;28;20024;-76
2024/01/19 05:46:01;;;;;;;2.25;0.75;;;;;;;0.32;100.00;101389.84;5061456;28;20059;-76
2024/01/19 05:48:26;;;;;;;2.47;0.60;;;;;;;0.34;100.00;101392.31;5065788;28;20043;-77
2024/01/19 05:50:52;;;;;;;3.22;0.80;;;;;;;0.26;100.00;101398.47;5063497;28;20032;-76
2024/01/19 05:53:17;;;;;;;0.50;0.50;;;;;;;0.14;100.00;101405.22;5059823;28;20040;-77
2024/01/19 05:55:43;;;;;;;3.15;0.80;;;;;;;0.27;100.00;101409.16;5063235;28;20032;-77
2024/01/19 05:58:08;;;;;;;3.33;1.10;;;;;;;0.27;100.00;101419.38;5063542;28;20090;-76
2024/01/19 06:00:34;;;;;;;2.63;0.82;;;;;;;0.30;100.00;101441.63;5059734;28;20153;-77
2024/01/19 06:02:59;;;;;;;1.50;0.73;;;;;;;0.27;100.00;101441.41;5059754;28;20075;-77
2024/01/19 06:05:24;;;;;;;2.17;0.90;;;;;;;0.28;100.00;101465.91;5056025;28;20028;-76
2024/01/19 06:07:50;;;;;;;4.32;1.13;;;;;;;0.40;100.00;101473.72;5058421;28;20559;-77
2024/01/19 06:10:15;;;;;;;1.83;0.80;;;;;;;0.31;100.00;101478.25;5061399;28;20496;-77
2024/01/19 06:12:41;;;;;;;0.80;0.80;;;;;;;0.23;100.00;101474.19;5064006;28;20083;-77
2024/01/19 06:15:07;;;;;;;0.63;0.52;;;;;;;0.10;100.00;101436.38;5061336;28;20069;-76
2024/01/19 06:17:32;;;;;;;1.70;0.82;;;;;;;0.20;100.00;101448.09;5058751;28;20032;-74
2024/01/19 06:19:57;;;;;;;5.45;1.15;;;;;;;0.25;100.00;101449.94;5060202;28;20036;-74
2024/01/19 06:22:23;;;;;;;3.22;0.82;;;;;;;0.25;100.00;101460.16;5063788;28;20056;-74
2024/01/19 06:24:51;;;;;;;1.55;0.98;;;;;;;0.22;100.00;101471.75;5058138;28;20028;-74
2024/01/19 06:27:19;;;;;;;3.95;0.82;;;;;;;0.27;100.00;101479.94;5062619;28;20020;-76
2024/01/19 06:29:45;;;;;;;4.03;1.10;;;;;;;0.25;100.00;101479.41;5066276;28;20043;-76
2024/01/19 06:32:10;;;;;;;2.22;0.80;;;;;;;0.14;100.00;101487.78;5058503;28;20063;-76
2024/01/19 06:34:38;;;;;;;2.83;1.05;;;;;;;0.08;100.00;101491.72;5062659;28;20033;-76
2024/01/19 06:37:04;;;;;;;2.53;1.17;;;;;;;0.14;100.00;101486.97;5065373;28;20041;-76
2024/01/19 06:39:30;;;;;;;1.77;0.80;;;;;;;-0.04;100.00;101494.06;5057547;28;20078;-76
2024/01/19 06:41:55;;;;;;;5.38;1.08;;;;;;;0.69;100.00;101481.06;5059680;28;20042;-76
2024/01/19 06:44:20;;;;;;;3.78;1.20;;;;;;;0.32;100.00;101493.66;5057337;28;20028;-76
2024/01/19 06:46:46;;;;;;;1.13;0.88;;;;;;;0.31;100.00;101500.28;5066066;28;20071;-76
2024/01/19 06:49:12;;;;;;;1.33;0.80;;;;;;;0.28;100.00;101500.88;5061476;28;20126;-76
2024/01/19 06:51:38;;;;;;;2.65;1.23;;;;;;;0.31;100.00;101508.53;5064730;28;20033;-76
2024/01/19 06:54:03;;;;;;;1.55;1.00;;;;;;;0.31;100.00;101508.53;5061331;28;20037;-76
2024/01/19 06:56:28;;;;;;;1.65;0.77;;;;;;;0.25;100.00;101510.53;5057679;28;20115;-76
2024/01/19 06:58:54;;;;;;;1.15;0.95;;;;;;;2.42;100.00;101517.91;5064507;28;20040;-77
2024/01/19 07:01:20;;;;;;;5.20;1.23;;;;;;;0.92;100.00;101516.03;5058191;28;20051;-77
2024/01/19 07:03:45;;;;;;;2.38;1.27;;;;;;;0.56;100.00;101527.50;5058160;28;20028;-77
2024/01/19 07:06:10;;;;;;;1.50;1.10;;;;;;;0.38;100.00;101520.00;5054560;28;20028;-76
2024/01/19 07:08:36;;;;;;;4.53;1.75;;;;;;;0.19;100.00;101514.44;5057094;28;20074;-76
2024/01/19 07:11:01;;;;;;;2.88;1.25;;;;;;;0.14;100.00;101526.34;5056195;28;20412;-75
2024/01/19 07:13:27;;;;;;;7.15;1.60;;;;;;;0.14;100.00;101529.09;5061290;28;20040;-75
2024/01/19 07:15:52;;;;;;;4.75;1.15;;;;;;;0.05;100.00;101538.28;5058797;28;20176;-76
2024/01/19 07:18:17;;;;;;;1.67;1.20;;;;;;;0.17;100.00;101534.03;5056413;28;20036;-75
2024/01/19 07:20:43;;;;;;;1.30;1.20;;;;;;;0.23;100.00;101540.28;5060084;28;20020;-75
2024/01/19 07:23:08;;;;;;;1.30;1.00;;;;;;;0.24;100.00;101552.13;5058845;28;20351;-75
2024/01/19 07:25:34;;;;;;;2.20;1.40;;;;;;;0.18;100.00;101543.91;5061080;28;20480;-76
2024/01/19 07:27:59;;;;;;;3.13;1.33;;;;;;;0.12;100.00;101542.31;5059979;28;20028;-75
2024/01/19 07:30:24;;;;;;;4.68;1.15;;;;;;;0.22;100.00;101554.34;5053080;28;20028;-74
2024/01/19 07:32:49;;;;;;;2.42;1.40;;;;;;;0.14;100.00;101548.34;5060688;28;20024;-74
2024/01/19 07:35:15;;;;;;;4.80;1.00;;;;;;;1.39;100.00;101543.72;5062759;28;20112;-74
2024/01/19 07:37:40;;;;;;;2.92;1.35;;;;;;;0.59;100.00;101543.47;5061460;28;20033;-78
2024/01/19 07:40:07;;;;;;;7.00;1.60;;;;;;;0.47;100.00;101553.25;5061352;28;20143;-77
2024/01/19 07:42:32;;;;;;;3.70;1.50;;;;;;;0.19;100.00;101567.59;5057789;28;20108;-78
2024/01/19 07:44:58;;;;;;;1.63;1.40;;;;;;;0.16;100.00;101564.59;5060950;28;20087;-78
2024/01/19 07:47:24;;;;;;;4.22;1.58;;;;;;;0.07;100.00;101567.16;5057018;28;20480;-78
2024/01/19 07:49:49;;;;;;;2.78;1.35;;;;;;;-0.12;100.00;101566.25;5058556;28;20416;-76
2024/01/19 07:52:15;;;;;;;4.05;1.73;;;;;;;-0.06;100.00;101565.91;5057256;28;20071;-78
2024/01/19 07:54:40;;;;;;;3.17;1.40;;;;;;;-0.05;100.00;101569.47;5060094;28;20068;-76
2024/01/19 07:57:05;;;;;;;5.32;1.88;;;;;;;-0.15;100.00;101567.63;5063532;28;20045;-77
2024/01/19 07:59:31;;;;;;;2.42;1.38;;;;;;;-0.09;100.00;101576.66;5064515;28;20024;-76
2024/01/19 08:01:56;;;;;;;7.78;2.20;;;;;;;0.02;100.00;101580.94;5062744;28;20032;-76
2024/01/19 08:04:21;;;;;;;2.35;2.15;;;;;;;0.09;100.00;101577.88;5060553;28;20029;-77
2024/01/19 08:06:47;;;;;;;2.45;2.00;;;;;;;0.00;100.00;101585.97;5060594;28;20502;-77
2024/01/19 08:09:13;;;;;;;2.80;2.08;;;;;;;0.21;100.00;101592.06;5062099;28;20039;-77
2024/01/19 08:11:39;;;;;;;3.20;2.53;;;;;;;-0.09;100.00;101593.19;5072884;28;20047;-77
2024/01/19 08:14:04;;;;;;;6.90;2.85;;;;;;;-0.04;100.00;101601.41;5056139;28;20320;-76
2024/01/19 08:16:30;;;;;;;4.70;1.95;;;;;;;0.14;100.00;101595.16;5047813;28;20476;-77
2024/01/19 08:18:58;;;;;;;5.57;3.30;;;;;;;-0.03;100.00;101614.03;5059792;28;20078;-76
2024/01/19 08:21:24;;;;;;;8.30;2.97;;;;;;;0.00;100.00;101616.22;5058692;28;20451;-75
2024/01/19 08:23:49;;;;;;;9.23;3.00;;;;;;;-0.12;100.00;101610.28;5056575;28;20024;-75
2024/01/19 08:26:15;;;;;;;3.50;3.20;;;;;;;-0.13;100.00;101617.69;5058868;28;20478;-76
2024/01/19 08:28:45;;;;;;;6.15;3.03;;;;;;;0.03;100.00;101612.88;5056470;28;20031;-75
2024/01/19 08:31:11;;;;;;;5.57;3.13;;;;;;;0.09;100.00;101622.75;5056732;28;20392;-75
2024/01/19 08:33:37;;;;;;;6.40;2.97;;;;;;;0.05;100.00;101618.13;5060247;28;20032;-76
2024/01/19 08:36:02;;;;;;;4.68;2.85;;;;;;;0.06;100.00;101626.06;5063797;28;20056;-76
2024/01/19 08:38:28;;;;;;;6.50;3.78;;;;;;;0.11;100.00;101636.22;5062961;28;20040;-77
2024/01/19 08:40:53;;;;;;;3.70;2.85;;;;;;;-0.05;100.00;101627.28;5060529;28;20025;-76
2024/01/19 08:43:18;;;;;;;8.80;4.68;;;;;;;-0.31;100.00;101629.41;5065630;28;20064;-76
2024/01/19 08:45:44;;;;;;;2.80;2.60;;;;;;;0.04;100.00;101628.28;5066055;28;20113;-76
2024/01/19 08:48:09;;;;;;;12.85;3.97;;;;;;;-0.08;100.00;101636.13;5069749;28;20032;-75
2024/01/19 08:50:34;;;;;;;6.30;3.75;;;;;;;0.03;100.00;101634.91;5062354;28;20565;-75
2024/01/19 08:53:02;;;;;;;9.43;2.95;;;;;;;-0.15;100.00;101641.09;5062690;28;20060;-75
2024/01/19 08:55:27;;;;;;;5.97;3.90;;;;;;;-0.22;100.00;101638.69;5064054;28;20032;-76
2024/01/19 08:57:53;;;;;;;5.47;2.88;;;;;;;-0.03;100.00;101642.38;5069853;28;20113;-76
2024/01/19 09:00:18;;;;;;;9.63;3.15;;;;;;;-0.07;100.00;101646.00;5059525;28;20107;-77
2024/01/19 09:02:47;;;;;;;9.05;3.28;;;;;;;0.48;100.00;101641.09;5057947;28;20028;-76
2024/01/19 09:05:13;;;;;;;7.32;3.22;;;;;;;0.24;100.00;101641.06;5069111;28;20039;-76
2024/01/19 09:07:38;;;;;;;8.73;3.03;;;;;;;0.09;100.00;101647.53;5073144;28;20025;-77
2024/01/19 09:10:04;;;;;;;8.20;2.95;;;;;;;0.10;100.00;101646.41;5070848;28;20020;-76
2024/01/19 09:12:29;;;;;;;6.35;2.95;;;;;;;0.08;100.00;101643.13;5076326;28;20029;-77
2024/01/19 09:14:55;;;;;;;7.00;3.25;;;;;;;0.02;100.00;101647.00;5072655;28;20123;-76
2024/01/19 09:17:20;;;;;;;6.20;3.15;;;;;;;0.04;100.00;101652.25;5072817;28;20033;-77
2024/01/19 09:19:45;;;;;;;5.22;2.72;;;;;;;0.00;100.00;101660.28;5070531;28;20029;-75
2024/01/19 09:22:10;;;;;;;12.30;2.85;;;;;;;0.14;100.00;101657.66;5069993;28;20072;-76
2024/01/19 09:24:36;;;;;;;6.20;2.65;;;;;;;0.16;100.00;101663.72;5068687;28;20380;-77
2024/01/19 09:27:01;;;;;;;5.10;2.90;;;;;;;0.18;100.00;101659.53;5070426;28;20484;-76
2024/01/19 09:29:26;;;;;;;5.55;3.17;;;;;;;0.23;100.00;101663.38;5069460;28;20029;-76
2024/01/19 09:31:52;;;;;;;5.80;3.03;;;;;;;0.17;100.00;101668.94;5069678;28;20047;-77
2024/01/19 09:34:17;;;;;;;4.88;2.72;;;;;;;0.18;100.00;101662.28;5071591;28;20095;-76
2024/01/19 09:36:42;;;;;;;6.45;2.95;;;;;;;0.20;100.00;101676.59;5059158;28;20049;-75
2024/01/19 09:39:08;;;;;;;4.90;3.05;;;;;;;0.33;100.00;101672.34;5060317;28;20287;-76
2024/01/19 09:41:45;;;;;;;8.13;3.22;;;;;;;0.35;100.00;101672.06;5067849;28;20499;-76
2024/01/19 09:44:12;;;;;;;7.25;2.50;;;;;;;0.40;100.00;101683.88;5068264;28;20038;-76
2024/01/19 09:47:05;;;;;;;3.92;2.88;;;;;;;0.36;100.00;101668.22;5073825;28;20395;-76
2024/01/19 09:49:49;;;;;;;;;;;;;;;0.46;100.00;101684.63;5073025;28;20028;-76
2024/01/19 09:52:46;;;;;;;3.38;2.40;;;;;;;0.55;100.00;101680.16;5070021;28;19912;-76
2024/01/19 09:55:12;;;;;;;8.10;3.90;;;;;;;0.49;100.00;101675.00;5063262;28;20459;-76
2024/01/19 09:57:47;;;;;;;3.22;2.42;;;;;;;0.56;100.00;101689.22;5070471;28;20016;-76
2024/01/19 10:00:14;;;;;;;6.47;3.05;;;;;;;0.58;100.00;101700.78;5065960;28;20107;-76
2024/01/19 10:02:52;;;;;;;4.72;2.70;;;;;;;0.62;100.00;101701.03;5069056;28;20036;-77
2024/01/19 10:05:18;;;;;;;3.28;2.58;;;;;;;0.71;100.00;101710.31;5070541;28;20384;-76
2024/01/19 10:07:46;;;;;;;9.63;3.00;;;;;;;0.73;100.00;101716.34;5070774;28;20029;-76
2024/01/19 10:10:11;;;;;;;9.18;3.42;;;;;;;0.74;100.00;101726.28;5072164;28;20059;-76
2024/01/19 10:12:38;;;;;;;4.15;2.58;;;;;;;0.77;100.00;101733.94;5068592;28;20495;-76
2024/01/19 10:15:14;;;;;;;9.75;3.08;;;;;;;0.86;100.00;101740.47;5068986;28;20035;-76
2024/01/19 10:17:40;;;;;;;10.77;2.60;;;;;;;0.82;100.00;101736.63;5062998;28;20035;-76
2024/01/19 10:20:10;;;;;;;11.18;3.13;;;;;;;0.87;100.00;101746.81;5068150;28;20618;-76
2024/01/19 10:22:35;;;;;;;10.23;2.83;;;;;;;1.01;100.00;101740.31;5068288;28;20137;-76
2024/01/19 10:25:03;;;;;;;9.40;2.78;;;;;;;1.08;100.00;101741.91;5064952;28;20520;-77
2024/01/19 10:27:39;;;;;;;4.63;2.10;;;;;;;1.06;100.00;101744.13;5067173;28;20021;-77
2024/01/19 10:30:10;;;;;;;8.70;3.20;;;;;;;1.14;100.00;101752.59;5069346;28;20024;-76
2024/01/19 10:32:40;;;;;;;6.65;2.95;;;;;;;1.11;100.00;101755.91;5066239;28;20556;-76
2024/01/19 10:35:12;;;;;;;6.45;3.10;;;;;;;1.24;100.00;101757.16;5068957;28;20448;-76
2024/01/19 10:37:38;;;;;;;6.55;3.28;;;;;;;1.18;100.00;101753.66;5065908;28;20032;-76
2024/01/19 10:40:17;;;;;;;10.23;3.70;;;;;;;1.23;100.00;101755.53;5069874;28;20036;-76
2024/01/19 10:42:43;;;;;;;6.70;3.78;;;;;;;1.21;100.00;101757.75;5052903;28;20033;-76
2024/01/19 10:45:23;;;;;;;9.18;2.85;;;;;;;1.25;100.00;101753.28;5059083;28;20028;-76
2024/01/19 10:47:54;;;;;;;5.40;2.72;;;;;;;1.36;100.00;101760.31;5068187;28;20024;-76
2024/01/19 10:50:21;;;;;;;8.02;2.92;;;;;;;1.36;100.00;101770.53;5057483;28;20037;-77
2024/01/19 10:52:48;;;;;;;8.27;2.78;;;;;;;1.46;100.00;101769.59;5068177;28;20748;-76
2024/01/19 10:55:22;;;;;;;6.35;2.67;;;;;;;1.48;100.00;101764.63;5067704;28;20020;-76
2024/01/19 10:57:50;;;;;;;7.97;2.83;;;;;;;1.50;100.00;101770.66;5066912;28;20463;-76
2024/01/19 11:00:23;;;;;;;8.20;2.97;;;;;;;1.48;100.00;101772.91;5082270;28;20066;-76
2024/01/19 11:02:53;;;;;;;7.38;2.95;;;;;;;1.63;100.00;101765.22;5060127;28;20029;-76
2024/01/19 11:05:19;;;;;;;5.32;2.95;;;;;;;1.56;100.00;101761.19;5067227;28;20119;-76
2024/01/19 11:07:52;;;;;;;4.15;2.75;;;;;;;1.57;100.00;101771.13;5065064;28;20066;-76
2024/01/19 11:10:19;;;;;;;7.80;2.72;;;;;;;1.86;100.00;101761.94;5063528;28;20118;-76
2024/01/19 11:12:56;;;;;;;11.85;3.70;;;;;;;1.69;100.00;101777.03;5068869;28;20484;-77
2024/01/19 11:15:34;;;;;;;7.55;2.88;;;;;;;1.65;100.00;101778.75;5069337;28;20037;-76
2024/01/19 11:18:02;;;;;;;4.82;2.88;;;;;;;1.80;100.00;101775.78;5065216;28;20036;-76
2024/01/19 11:20:29;;;;;;;3.72;2.80;;;;;;;1.68;100.00;101769.03;5065205;28;20032;-76